sensor_id;sensor_type;location;lat;lon;timestamp;temperature;humidity
5027;DHT22;2532;52.480;13.354;2023-05-07T04:01:04;11.10;97.00
5027;DHT22;2532;52.480;13.354;2023-05-07T04:03:31;11.00;97.00
5027;DHT22;2532;52.480;13.354;2023-05-07T04:05:58;11.00;97.10
5027;DHT22;2532;52.480;13.354;2023-05-07T04:08:25;11.00;97.10
5027;DHT22;2532;52.480;13.354;2023-05-07T04:10:55;10.90;97.10
5027;DHT22;2532;52.480;13.354;2023-05-07T04:13:22;10.90;97.20
5027;DHT22;2532;52.480;13.354;2023-05-07T04:15:49;10.90;97.30
5027;DHT22;2532;52.480;13.354;2023-05-07T04:18:18;10.90;97.30
5027;DHT22;2532;52.480;13.354;2023-05-07T04:20:48;10.90;97.30
5027;DHT22;2532;52.480;13.354;2023-05-07T04:23:19;10.90;97.30
5027;DHT22;2532;52.480;13.354;2023-05-07T04:25:49;11.00;97.30
5027;DHT22;2532;52.480;13.354;2023-05-07T04:28:17;10.90;97.10
5027;DHT22;2532;52.480;13.354;2023-05-07T04:30:47;10.90;97.00
5027;DHT22;2532;52.480;13.354;2023-05-07T04:33:19;10.90;97.10
5027;DHT22;2532;52.480;13.354;2023-05-07T04:35:50;10.90;97.10
5027;DHT22;2532;52.480;13.354;2023-05-07T04:38:19;10.90;97.20
5027;DHT22;2532;52.480;13.354;2023-05-07T04:41:03;10.90;97.20
5027;DHT22;2532;52.480;13.354;2023-05-07T04:43:35;10.90;97.10
5027;DHT22;2532;52.480;13.354;2023-05-07T04:46:04;11.00;97.10
5027;DHT22;2532;52.480;13.354;2023-05-07T04:48:34;11.00;97.00
5027;DHT22;2532;52.480;13.354;2023-05-07T04:51:03;11.00;96.90
5027;DHT22;2532;52.480;13.354;2023-05-07T04:53:30;11.00;96.80
5027;DHT22;2532;52.480;13.354;2023-05-07T04:55:58;11.10;96.80
5027;DHT22;2532;52.480;13.354;2023-05-07T04:58:28;11.00;96.70
5027;DHT22;2532;52.480;13.354;2023-05-07T05:00:57;11.00;97.00
5027;DHT22;2532;52.480;13.354;2023-05-07T05:03:27;11.10;96.70
5027;DHT22;2532;52.480;13.354;2023-05-07T05:05:58;11.10;96.70
5027;DHT22;2532;52.480;13.354;2023-05-07T05:08:29;11.10;96.70
5027;DHT22;2532;52.480;13.354;2023-05-07T05:10:57;11.10;96.70
5027;DHT22;2532;52.480;13.354;2023-05-07T05:13:25;11.20;96.50
5027;DHT22;2532;52.480;13.354;2023-05-07T05:15:56;11.20;96.40
5027;DHT22;2532;52.480;13.354;2023-05-07T05:18:27;11.20;96.40
5027;DHT22;2532;52.480;13.354;2023-05-07T05:20:57;11.20;96.30
5027;DHT22;2532;52.480;13.354;2023-05-07T05:23:25;11.20;96.30
5027;DHT22;2532;52.480;13.354;2023-05-07T05:25:55;11.30;96.30
5027;DHT22;2532;52.480;13.354;2023-05-07T05:28:24;11.30;96.20
5027;DHT22;2532;52.480;13.354;2023-05-07T05:30:52;11.40;96.20
5027;DHT22;2532;52.480;13.354;2023-05-07T05:33:19;11.40;95.90
5027;DHT22;2532;52.480;13.354;2023-05-07T05:35:47;11.40;95.70
5027;DHT22;2532;52.480;13.354;2023-05-07T05:38:16;11.50;95.80
5027;DHT22;2532;52.480;13.354;2023-05-07T05:40:44;11.50;95.80
5027;DHT22;2532;52.480;13.354;2023-05-07T05:43:12;11.40;95.60
5027;DHT22;2532;52.480;13.354;2023-05-07T05:45:41;11.40;95.40
5027;DHT22;2532;52.480;13.354;2023-05-07T05:48:11;11.40;95.40
5027;DHT22;2532;52.480;13.354;2023-05-07T05:50:39;11.40;95.50
5027;DHT22;2532;52.480;13.354;2023-05-07T05:53:07;11.40;95.40
5027;DHT22;2532;52.480;13.354;2023-05-07T05:55:36;11.40;95.60
5027;DHT22;2532;52.480;13.354;2023-05-07T05:58:04;11.40;95.70
5027;DHT22;2532;52.480;13.354;2023-05-07T06:00:32;11.40;95.80
5027;DHT22;2532;52.480;13.354;2023-05-07T06:02:59;11.50;95.90
5027;DHT22;2532;52.480;13.354;2023-05-07T06:05:26;11.50;95.70
5027;DHT22;2532;52.480;13.354;2023-05-07T06:07:57;11.60;95.60
5027;DHT22;2532;52.480;13.354;2023-05-07T06:10:29;11.70;95.50
5027;DHT22;2532;52.480;13.354;2023-05-07T06:12:59;11.70;95.40
5027;DHT22;2532;52.480;13.354;2023-05-07T06:15:29;11.70;95.10
5027;DHT22;2532;52.480;13.354;2023-05-07T06:17:57;11.70;95.10
5027;DHT22;2532;52.480;13.354;2023-05-07T06:20:27;11.70;95.20
5027;DHT22;2532;52.480;13.354;2023-05-07T06:22:55;11.70;95.20
5027;DHT22;2532;52.480;13.354;2023-05-07T06:25:22;11.70;95.20
5027;DHT22;2532;52.480;13.354;2023-05-07T06:27:52;11.70;95.30
5027;DHT22;2532;52.480;13.354;2023-05-07T06:30:21;11.80;95.20
5027;DHT22;2532;52.480;13.354;2023-05-07T06:32:49;11.90;95.40
5027;DHT22;2532;52.480;13.354;2023-05-07T06:35:18;12.00;95.30
5027;DHT22;2532;52.480;13.354;2023-05-07T06:37:47;12.00;95.00
5027;DHT22;2532;52.480;13.354;2023-05-07T06:40:14;12.10;95.00
5027;DHT22;2532;52.480;13.354;2023-05-07T06:42:50;12.20;94.90
5027;DHT22;2532;52.480;13.354;2023-05-07T06:45:35;12.20;94.70
5027;DHT22;2532;52.480;13.354;2023-05-07T06:48:14;12.20;94.60
5027;DHT22;2532;52.480;13.354;2023-05-07T06:50:55;12.20;94.90
5027;DHT22;2532;52.480;13.354;2023-05-07T06:53:32;12.20;94.50
5027;DHT22;2532;52.480;13.354;2023-05-07T06:56:02;12.20;94.50
5027;DHT22;2532;52.480;13.354;2023-05-07T06:58:52;12.30;94.50
5027;DHT22;2532;52.480;13.354;2023-05-07T07:01:26;12.20;94.30
5027;DHT22;2532;52.480;13.354;2023-05-07T07:03:58;12.30;94.50
5027;DHT22;2532;52.480;13.354;2023-05-07T07:06:27;12.30;94.60
5027;DHT22;2532;52.480;13.354;2023-05-07T07:09:08;12.40;94.40
5027;DHT22;2532;52.480;13.354;2023-05-07T07:11:35;12.40;93.90
5027;DHT22;2532;52.480;13.354;2023-05-07T07:14:02;12.50;94.00
5027;DHT22;2532;52.480;13.354;2023-05-07T07:16:34;12.50;94.10
5027;DHT22;2532;52.480;13.354;2023-05-07T07:19:05;12.60;94.20
5027;DHT22;2532;52.480;13.354;2023-05-07T07:21:32;12.70;94.20
5027;DHT22;2532;52.480;13.354;2023-05-07T07:24:00;12.80;94.00
5027;DHT22;2532;52.480;13.354;2023-05-07T07:26:27;12.90;93.70
5027;DHT22;2532;52.480;13.354;2023-05-07T07:28:55;13.00;93.30
5027;DHT22;2532;52.480;13.354;2023-05-07T07:31:22;13.10;93.30
5027;DHT22;2532;52.480;13.354;2023-05-07T07:33:51;13.10;93.20
5027;DHT22;2532;52.480;13.354;2023-05-07T07:36:19;13.00;93.10
5027;DHT22;2532;52.480;13.354;2023-05-07T07:38:49;13.00;93.10
5027;DHT22;2532;52.480;13.354;2023-05-07T07:41:21;13.00;93.00
5027;DHT22;2532;52.480;13.354;2023-05-07T07:43:58;13.00;93.00
5027;DHT22;2532;52.480;13.354;2023-05-07T07:46:25;13.00;93.20
5027;DHT22;2532;52.480;13.354;2023-05-07T07:48:56;13.00;93.30
5027;DHT22;2532;52.480;13.354;2023-05-07T07:51:25;13.00;92.90
5027;DHT22;2532;52.480;13.354;2023-05-07T07:53:53;13.00;92.80
5027;DHT22;2532;52.480;13.354;2023-05-07T07:56:23;13.00;92.80
5027;DHT22;2532;52.480;13.354;2023-05-07T07:58:50;13.10;92.70
5027;DHT22;2532;52.480;13.354;2023-05-07T08:01:18;13.20;92.90
5027;DHT22;2532;52.480;13.354;2023-05-07T08:03:45;13.30;92.60
5027;DHT22;2532;52.480;13.354;2023-05-07T08:06:14;13.40;92.60
5027;DHT22;2532;52.480;13.354;2023-05-07T08:08:41;13.50;92.70
5027;DHT22;2532;52.480;13.354;2023-05-07T08:11:12;13.60;92.60
5027;DHT22;2532;52.480;13.354;2023-05-07T08:13:39;13.70;92.10
5027;DHT22;2532;52.480;13.354;2023-05-07T08:16:06;13.80;92.10
5027;DHT22;2532;52.480;13.354;2023-05-07T08:18:34;13.80;92.20
5027;DHT22;2532;52.480;13.354;2023-05-07T08:21:07;13.90;91.70
5027;DHT22;2532;52.480;13.354;2023-05-07T08:23:42;13.90;91.60
5027;DHT22;2532;52.480;13.354;2023-05-07T08:26:10;14.00;91.60
5027;DHT22;2532;52.480;13.354;2023-05-07T08:28:39;14.00;91.70
5027;DHT22;2532;52.480;13.354;2023-05-07T08:31:06;14.00;91.50
5027;DHT22;2532;52.480;13.354;2023-05-07T08:33:36;14.10;91.60
5027;DHT22;2532;52.480;13.354;2023-05-07T08:36:04;14.20;91.40
5027;DHT22;2532;52.480;13.354;2023-05-07T08:38:32;14.40;90.80
5027;DHT22;2532;52.480;13.354;2023-05-07T08:41:01;14.50;90.70
5027;DHT22;2532;52.480;13.354;2023-05-07T08:43:29;14.60;90.30
5027;DHT22;2532;52.480;13.354;2023-05-07T08:46:01;14.70;90.60
5027;DHT22;2532;52.480;13.354;2023-05-07T08:48:30;14.90;90.60
5027;DHT22;2532;52.480;13.354;2023-05-07T08:50:58;15.00;90.50
5027;DHT22;2532;52.480;13.354;2023-05-07T08:53:26;15.10;90.30
5027;DHT22;2532;52.480;13.354;2023-05-07T08:55:54;15.20;90.20
5027;DHT22;2532;52.480;13.354;2023-05-07T08:58:29;15.40;90.00
5027;DHT22;2532;52.480;13.354;2023-05-07T09:00:56;15.40;89.60
5027;DHT22;2532;52.480;13.354;2023-05-07T09:03:23;15.40;89.20
5027;DHT22;2532;52.480;13.354;2023-05-07T09:05:50;15.50;89.20
5027;DHT22;2532;52.480;13.354;2023-05-07T09:08:18;15.40;88.90
5027;DHT22;2532;52.480;13.354;2023-05-07T09:10:45;15.40;88.30
5027;DHT22;2532;52.480;13.354;2023-05-07T09:13:15;15.40;88.40
5027;DHT22;2532;52.480;13.354;2023-05-07T09:15:45;15.40;88.30
5027;DHT22;2532;52.480;13.354;2023-05-07T09:18:13;15.40;88.30
5027;DHT22;2532;52.480;13.354;2023-05-07T09:20:40;15.40;88.20
5027;DHT22;2532;52.480;13.354;2023-05-07T09:23:08;15.40;88.40
5027;DHT22;2532;52.480;13.354;2023-05-07T09:25:36;15.50;88.20
5027;DHT22;2532;52.480;13.354;2023-05-07T09:28:04;15.60;88.50
5027;DHT22;2532;52.480;13.354;2023-05-07T09:30:33;15.60;88.10
5027;DHT22;2532;52.480;13.354;2023-05-07T09:33:05;15.60;87.70
5027;DHT22;2532;52.480;13.354;2023-05-07T09:35:33;15.60;87.70
5027;DHT22;2532;52.480;13.354;2023-05-07T09:38:02;15.60;87.50
5027;DHT22;2532;52.480;13.354;2023-05-07T09:40:30;15.60;88.10
5027;DHT22;2532;52.480;13.354;2023-05-07T09:43:09;15.60;87.90
5027;DHT22;2532;52.480;13.354;2023-05-07T09:45:37;15.60;87.70
5027;DHT22;2532;52.480;13.354;2023-05-07T09:48:11;15.60;87.90
5027;DHT22;2532;52.480;13.354;2023-05-07T09:50:46;15.50;87.70
5027;DHT22;2532;52.480;13.354;2023-05-07T09:53:16;15.40;87.60
5027;DHT22;2532;52.480;13.354;2023-05-07T09:55:48;15.40;87.70
5027;DHT22;2532;52.480;13.354;2023-05-07T09:58:16;15.40;87.80
5027;DHT22;2532;52.480;13.354;2023-05-07T10:00:46;15.40;87.90
5027;DHT22;2532;52.480;13.354;2023-05-07T10:03:23;15.40;87.80
5027;DHT22;2532;52.480;13.354;2023-05-07T10:05:52;15.40;88.30
5027;DHT22;2532;52.480;13.354;2023-05-07T10:08:22;15.40;87.90
5027;DHT22;2532;52.480;13.354;2023-05-07T10:10:50;15.50;87.00
5027;DHT22;2532;52.480;13.354;2023-05-07T10:13:21;15.60;87.10
5027;DHT22;2532;52.480;13.354;2023-05-07T10:15:49;15.60;86.40
5027;DHT22;2532;52.480;13.354;2023-05-07T10:18:20;15.70;86.30
5027;DHT22;2532;52.480;13.354;2023-05-07T10:21:11;15.90;86.50
5027;DHT22;2532;52.480;13.354;2023-05-07T10:23:42;16.10;85.80
5027;DHT22;2532;52.480;13.354;2023-05-07T10:26:12;16.30;84.90
5027;DHT22;2532;52.480;13.354;2023-05-07T10:28:44;16.50;84.80
5027;DHT22;2532;52.480;13.354;2023-05-07T10:31:28;16.70;83.80
5027;DHT22;2532;52.480;13.354;2023-05-07T10:34:08;16.80;83.90
5027;DHT22;2532;52.480;13.354;2023-05-07T10:36:37;16.80;83.20
5027;DHT22;2532;52.480;13.354;2023-05-07T10:39:08;16.80;82.40
5027;DHT22;2532;52.480;13.354;2023-05-07T10:41:36;16.70;84.80
5027;DHT22;2532;52.480;13.354;2023-05-07T10:44:03;16.70;82.30
5027;DHT22;2532;52.480;13.354;2023-05-07T10:46:32;16.80;84.10
5027;DHT22;2532;52.480;13.354;2023-05-07T10:49:09;16.80;83.70
5027;DHT22;2532;52.480;13.354;2023-05-07T10:51:39;16.90;83.20
5027;DHT22;2532;52.480;13.354;2023-05-07T10:54:22;17.00;82.80
5027;DHT22;2532;52.480;13.354;2023-05-07T10:56:53;17.00;82.50
5027;DHT22;2532;52.480;13.354;2023-05-07T10:59:35;17.10;82.00
5027;DHT22;2532;52.480;13.354;2023-05-07T11:02:10;17.10;81.40
5027;DHT22;2532;52.480;13.354;2023-05-07T11:04:41;17.10;81.30
5027;DHT22;2532;52.480;13.354;2023-05-07T11:07:27;17.00;81.10
5027;DHT22;2532;52.480;13.354;2023-05-07T11:10:02;16.90;81.50
5027;DHT22;2532;52.480;13.354;2023-05-07T11:12:52;16.80;82.50
5027;DHT22;2532;52.480;13.354;2023-05-07T11:15:42;17.00;81.80
5027;DHT22;2532;52.480;13.354;2023-05-07T11:18:12;17.20;80.60
5027;DHT22;2532;52.480;13.354;2023-05-07T11:20:58;17.30;80.90
5027;DHT22;2532;52.480;13.354;2023-05-07T11:23:55;17.30;79.80
5027;DHT22;2532;52.480;13.354;2023-05-07T11:26:23;17.30;80.20
5027;DHT22;2532;52.480;13.354;2023-05-07T11:28:52;17.30;80.60
5027;DHT22;2532;52.480;13.354;2023-05-07T11:31:23;17.40;81.10
5027;DHT22;2532;52.480;13.354;2023-05-07T11:33:53;17.50;80.30
5027;DHT22;2532;52.480;13.354;2023-05-07T11:36:34;17.50;79.20
5027;DHT22;2532;52.480;13.354;2023-05-07T11:39:01;17.60;78.70
5027;DHT22;2532;52.480;13.354;2023-05-07T11:41:35;17.60;78.80
5027;DHT22;2532;52.480;13.354;2023-05-07T11:44:04;17.60;78.10
5027;DHT22;2532;52.480;13.354;2023-05-07T11:46:32;17.50;76.20
5027;DHT22;2532;52.480;13.354;2023-05-07T11:49:00;17.50;77.00
5027;DHT22;2532;52.480;13.354;2023-05-07T11:51:29;17.50;76.90
5027;DHT22;2532;52.480;13.354;2023-05-07T11:54:15;17.60;76.80
5027;DHT22;2532;52.480;13.354;2023-05-07T11:56:46;17.60;77.00
5027;DHT22;2532;52.480;13.354;2023-05-07T11:59:18;17.60;76.70
5027;DHT22;2532;52.480;13.354;2023-05-07T12:01:46;17.70;75.90
5027;DHT22;2532;52.480;13.354;2023-05-07T12:04:19;17.60;76.20
5027;DHT22;2532;52.480;13.354;2023-05-07T12:06:47;17.60;76.00
5027;DHT22;2532;52.480;13.354;2023-05-07T12:09:18;17.40;76.50
5027;DHT22;2532;52.480;13.354;2023-05-07T12:11:46;17.40;75.80
5027;DHT22;2532;52.480;13.354;2023-05-07T12:14:14;17.40;76.40
5027;DHT22;2532;52.480;13.354;2023-05-07T12:16:42;17.40;76.50
5027;DHT22;2532;52.480;13.354;2023-05-07T12:19:13;17.40;75.70
5027;DHT22;2532;52.480;13.354;2023-05-07T12:21:42;17.50;76.10
5027;DHT22;2532;52.480;13.354;2023-05-07T12:24:10;17.60;75.30
5027;DHT22;2532;52.480;13.354;2023-05-07T12:26:40;17.60;75.40
5027;DHT22;2532;52.480;13.354;2023-05-07T12:29:17;17.60;75.70
5027;DHT22;2532;52.480;13.354;2023-05-07T12:32:15;17.60;74.80
5027;DHT22;2532;52.480;13.354;2023-05-07T12:34:47;17.60;75.20
5027;DHT22;2532;52.480;13.354;2023-05-07T12:37:23;17.60;75.30
5027;DHT22;2532;52.480;13.354;2023-05-07T12:40:04;17.70;74.80
5027;DHT22;2532;52.480;13.354;2023-05-07T12:42:36;17.80;74.80
5027;DHT22;2532;52.480;13.354;2023-05-07T12:45:15;17.80;74.60
5027;DHT22;2532;52.480;13.354;2023-05-07T12:47:46;17.80;74.20
5027;DHT22;2532;52.480;13.354;2023-05-07T12:50:14;17.90;73.90
5027;DHT22;2532;52.480;13.354;2023-05-07T12:52:47;17.90;73.40
5027;DHT22;2532;52.480;13.354;2023-05-07T12:55:15;17.90;73.70
5027;DHT22;2532;52.480;13.354;2023-05-07T12:57:48;17.80;73.60
5027;DHT22;2532;52.480;13.354;2023-05-07T13:00:17;17.80;73.60
5027;DHT22;2532;52.480;13.354;2023-05-07T13:02:45;17.80;73.80
5027;DHT22;2532;52.480;13.354;2023-05-07T13:05:13;17.90;73.60
5027;DHT22;2532;52.480;13.354;2023-05-07T13:07:40;17.90;74.20
5027;DHT22;2532;52.480;13.354;2023-05-07T13:10:11;18.00;74.50
5027;DHT22;2532;52.480;13.354;2023-05-07T13:12:39;18.20;73.90
5027;DHT22;2532;52.480;13.354;2023-05-07T13:15:09;18.20;72.90
5027;DHT22;2532;52.480;13.354;2023-05-07T13:17:36;18.30;73.90
5027;DHT22;2532;52.480;13.354;2023-05-07T13:20:05;18.30;72.90
5027;DHT22;2532;52.480;13.354;2023-05-07T13:22:33;18.30;71.70
5027;DHT22;2532;52.480;13.354;2023-05-07T13:25:10;18.30;71.70
5027;DHT22;2532;52.480;13.354;2023-05-07T13:27:37;18.40;71.40
5027;DHT22;2532;52.480;13.354;2023-05-07T13:30:08;18.40;71.40
5027;DHT22;2532;52.480;13.354;2023-05-07T13:32:35;18.40;70.80
5027;DHT22;2532;52.480;13.354;2023-05-07T13:35:03;18.50;70.90
5027;DHT22;2532;52.480;13.354;2023-05-07T13:37:30;18.40;70.10
5027;DHT22;2532;52.480;13.354;2023-05-07T13:39:58;18.40;70.40
5027;DHT22;2532;52.480;13.354;2023-05-07T13:42:27;18.50;70.50
5027;DHT22;2532;52.480;13.354;2023-05-07T13:44:55;18.50;70.30
5027;DHT22;2532;52.480;13.354;2023-05-07T13:47:26;18.50;70.50
5027;DHT22;2532;52.480;13.354;2023-05-07T13:49:53;18.50;69.90
5027;DHT22;2532;52.480;13.354;2023-05-07T13:52:25;18.50;69.40
5027;DHT22;2532;52.480;13.354;2023-05-07T13:54:52;18.40;69.80
5027;DHT22;2532;52.480;13.354;2023-05-07T13:57:20;18.40;70.50
5027;DHT22;2532;52.480;13.354;2023-05-07T13:59:48;18.50;70.10
5027;DHT22;2532;52.480;13.354;2023-05-07T14:02:18;18.50;69.50
5027;DHT22;2532;52.480;13.354;2023-05-07T14:04:47;18.60;69.40
5027;DHT22;2532;52.480;13.354;2023-05-07T14:07:14;18.60;68.80
5027;DHT22;2532;52.480;13.354;2023-05-07T14:09:45;18.50;68.20
5027;DHT22;2532;52.480;13.354;2023-05-07T14:12:12;18.50;68.50
5027;DHT22;2532;52.480;13.354;2023-05-07T14:14:40;18.60;68.10
5027;DHT22;2532;52.480;13.354;2023-05-07T14:17:07;18.70;68.30
5027;DHT22;2532;52.480;13.354;2023-05-07T14:19:37;18.90;68.40
5027;DHT22;2532;52.480;13.354;2023-05-07T14:22:09;19.00;68.70
5027;DHT22;2532;52.480;13.354;2023-05-07T14:24:37;19.30;68.70
5027;DHT22;2532;52.480;13.354;2023-05-07T14:27:05;19.50;68.50
5027;DHT22;2532;52.480;13.354;2023-05-07T14:29:35;19.60;68.30
5027;DHT22;2532;52.480;13.354;2023-05-07T14:32:03;19.90;67.60
5027;DHT22;2532;52.480;13.354;2023-05-07T14:34:31;20.10;66.10
5027;DHT22;2532;52.480;13.354;2023-05-07T14:36:59;20.10;64.80
5027;DHT22;2532;52.480;13.354;2023-05-07T14:39:28;20.10;63.10
5027;DHT22;2532;52.480;13.354;2023-05-07T14:41:55;20.00;63.50
5027;DHT22;2532;52.480;13.354;2023-05-07T14:44:23;20.10;63.70
5027;DHT22;2532;52.480;13.354;2023-05-07T14:46:50;20.20;64.30
5027;DHT22;2532;52.480;13.354;2023-05-07T14:49:20;20.40;63.60
5027;DHT22;2532;52.480;13.354;2023-05-07T14:51:49;20.50;63.70
5027;DHT22;2532;52.480;13.354;2023-05-07T14:54:16;20.60;63.00
5027;DHT22;2532;52.480;13.354;2023-05-07T14:56:44;20.80;63.40
5027;DHT22;2532;52.480;13.354;2023-05-07T14:59:11;20.90;62.60
5027;DHT22;2532;52.480;13.354;2023-05-07T15:01:38;21.00;61.80
5027;DHT22;2532;52.480;13.354;2023-05-07T15:04:10;21.10;61.60
5027;DHT22;2532;52.480;13.354;2023-05-07T15:06:37;21.20;60.80
5027;DHT22;2532;52.480;13.354;2023-05-07T15:09:04;21.20;60.60
5027;DHT22;2532;52.480;13.354;2023-05-07T15:11:31;21.20;60.60
5027;DHT22;2532;52.480;13.354;2023-05-07T15:14:00;21.20;61.40
5027;DHT22;2532;52.480;13.354;2023-05-07T15:16:27;21.20;60.90
5027;DHT22;2532;52.480;13.354;2023-05-07T15:18:54;20.90;60.60
5027;DHT22;2532;52.480;13.354;2023-05-07T15:21:21;20.60;61.50
5027;DHT22;2532;52.480;13.354;2023-05-07T15:23:48;20.40;62.00
5027;DHT22;2532;52.480;13.354;2023-05-07T15:26:15;20.20;62.20
5027;DHT22;2532;52.480;13.354;2023-05-07T15:28:42;20.10;63.60
5027;DHT22;2532;52.480;13.354;2023-05-07T15:31:10;20.00;63.40
5027;DHT22;2532;52.480;13.354;2023-05-07T15:33:37;20.00;62.90
5027;DHT22;2532;52.480;13.354;2023-05-07T15:36:06;20.10;63.70
5027;DHT22;2532;52.480;13.354;2023-05-07T15:38:34;20.20;62.80
5027;DHT22;2532;52.480;13.354;2023-05-07T15:41:01;20.30;62.30
5027;DHT22;2532;52.480;13.354;2023-05-07T15:43:28;20.30;61.60
5027;DHT22;2532;52.480;13.354;2023-05-07T15:45:55;20.40;62.10
5027;DHT22;2532;52.480;13.354;2023-05-07T15:48:23;20.50;61.60
5027;DHT22;2532;52.480;13.354;2023-05-07T15:50:50;20.60;60.70
5027;DHT22;2532;52.480;13.354;2023-05-07T15:53:17;20.60;61.60
5027;DHT22;2532;52.480;13.354;2023-05-07T15:55:44;20.70;62.00
5027;DHT22;2532;52.480;13.354;2023-05-07T15:58:11;20.80;61.20
5027;DHT22;2532;52.480;13.354;2023-05-07T16:00:38;20.80;61.10
5027;DHT22;2532;52.480;13.354;2023-05-07T16:03:06;20.90;61.90
5027;DHT22;2532;52.480;13.354;2023-05-07T16:05:35;21.10;62.20
5027;DHT22;2532;52.480;13.354;2023-05-07T16:08:02;21.40;60.70
5027;DHT22;2532;52.480;13.354;2023-05-07T16:10:29;21.40;60.10
5027;DHT22;2532;52.480;13.354;2023-05-07T16:12:56;21.20;60.70
5027;DHT22;2532;52.480;13.354;2023-05-07T16:15:24;21.00;60.20
5027;DHT22;2532;52.480;13.354;2023-05-07T16:17:51;20.70;60.80
5027;DHT22;2532;52.480;13.354;2023-05-07T16:20:22;20.50;61.00
5027;DHT22;2532;52.480;13.354;2023-05-07T16:22:52;20.20;61.00
5027;DHT22;2532;52.480;13.354;2023-05-07T16:25:19;20.10;61.50
5027;DHT22;2532;52.480;13.354;2023-05-07T16:27:46;20.00;62.00
5027;DHT22;2532;52.480;13.354;2023-05-07T16:30:13;20.10;61.10
5027;DHT22;2532;52.480;13.354;2023-05-07T16:32:40;20.10;60.00
5027;DHT22;2532;52.480;13.354;2023-05-07T16:35:08;20.10;59.50
5027;DHT22;2532;52.480;13.354;2023-05-07T16:37:35;20.10;60.60
5027;DHT22;2532;52.480;13.354;2023-05-07T16:40:04;20.30;59.50
5027;DHT22;2532;52.480;13.354;2023-05-07T16:42:32;20.50;59.70
5027;DHT22;2532;52.480;13.354;2023-05-07T16:44:59;20.80;59.00
5027;DHT22;2532;52.480;13.354;2023-05-07T16:47:26;20.90;58.70
5027;DHT22;2532;52.480;13.354;2023-05-07T16:49:53;21.10;58.70
5027;DHT22;2532;52.480;13.354;2023-05-07T16:52:20;21.20;58.40
5027;DHT22;2532;52.480;13.354;2023-05-07T16:54:47;21.20;58.40
5027;DHT22;2532;52.480;13.354;2023-05-07T16:57:16;21.30;58.20
5027;DHT22;2532;52.480;13.354;2023-05-07T16:59:43;20.90;57.50
5027;DHT22;2532;52.480;13.354;2023-05-07T17:02:10;20.50;57.90
5027;DHT22;2532;52.480;13.354;2023-05-07T17:04:37;20.00;58.80
5027;DHT22;2532;52.480;13.354;2023-05-07T17:07:04;19.60;59.30
5027;DHT22;2532;52.480;13.354;2023-05-07T17:09:31;19.20;59.80
5027;DHT22;2532;52.480;13.354;2023-05-07T17:11:58;19.00;60.90
5027;DHT22;2532;52.480;13.354;2023-05-07T17:14:26;18.90;61.60
5027;DHT22;2532;52.480;13.354;2023-05-07T17:16:53;19.00;61.20
5027;DHT22;2532;52.480;13.354;2023-05-07T17:19:22;19.30;60.40
5027;DHT22;2532;52.480;13.354;2023-05-07T17:21:49;19.80;59.70
5027;DHT22;2532;52.480;13.354;2023-05-07T17:24:16;20.20;58.90
5027;DHT22;2532;52.480;13.354;2023-05-07T17:26:43;20.40;58.60
5027;DHT22;2532;52.480;13.354;2023-05-07T17:29:10;20.30;58.60
5027;DHT22;2532;52.480;13.354;2023-05-07T17:31:38;19.90;59.20
5027;DHT22;2532;52.480;13.354;2023-05-07T17:34:05;19.50;59.80
5027;DHT22;2532;52.480;13.354;2023-05-07T17:36:32;19.10;59.80
5027;DHT22;2532;52.480;13.354;2023-05-07T17:38:59;18.70;60.80
5027;DHT22;2532;52.480;13.354;2023-05-07T17:41:26;18.30;61.00
5027;DHT22;2532;52.480;13.354;2023-05-07T17:43:53;18.20;61.90
5027;DHT22;2532;52.480;13.354;2023-05-07T17:46:20;18.20;62.20
5027;DHT22;2532;52.480;13.354;2023-05-07T17:48:48;18.10;62.10
5027;DHT22;2532;52.480;13.354;2023-05-07T17:51:16;18.00;62.60
5027;DHT22;2532;52.480;13.354;2023-05-07T17:53:43;17.70;62.90
5027;DHT22;2532;52.480;13.354;2023-05-07T17:56:11;17.40;63.30
5027;DHT22;2532;52.480;13.354;2023-05-07T17:58:38;17.20;63.50
5027;DHT22;2532;52.480;13.354;2023-05-07T18:01:05;17.00;64.40
5027;DHT22;2532;52.480;13.354;2023-05-07T18:03:31;16.90;64.30
5027;DHT22;2532;52.480;13.354;2023-05-07T18:06:00;16.80;64.70
5027;DHT22;2532;52.480;13.354;2023-05-07T18:08:27;16.60;64.90
5027;DHT22;2532;52.480;13.354;2023-05-07T18:11:00;16.50;65.50
5027;DHT22;2532;52.480;13.354;2023-05-07T18:13:27;16.40;64.90
5027;DHT22;2532;52.480;13.354;2023-05-07T18:15:54;16.30;66.00
5027;DHT22;2532;52.480;13.354;2023-05-07T18:18:21;16.20;65.20
5027;DHT22;2532;52.480;13.354;2023-05-07T18:20:50;16.20;65.80
5027;DHT22;2532;52.480;13.354;2023-05-07T18:23:19;16.10;66.20
5027;DHT22;2532;52.480;13.354;2023-05-07T18:25:46;16.00;66.30
5027;DHT22;2532;52.480;13.354;2023-05-07T18:28:13;15.90;66.60
5027;DHT22;2532;52.480;13.354;2023-05-07T18:30:40;15.80;66.80
5027;DHT22;2532;52.480;13.354;2023-05-07T18:33:07;15.80;66.90
5027;DHT22;2532;52.480;13.354;2023-05-07T18:35:34;15.70;67.20
5027;DHT22;2532;52.480;13.354;2023-05-07T18:38:01;15.70;67.80
5027;DHT22;2532;52.480;13.354;2023-05-07T18:40:30;15.60;67.90
5027;DHT22;2532;52.480;13.354;2023-05-07T18:42:57;15.60;68.10
5027;DHT22;2532;52.480;13.354;2023-05-07T18:45:25;15.60;68.40
5027;DHT22;2532;52.480;13.354;2023-05-07T18:47:52;15.50;68.70
5027;DHT22;2532;52.480;13.354;2023-05-07T18:50:19;15.50;69.10
5027;DHT22;2532;52.480;13.354;2023-05-07T18:52:46;15.50;69.40
5027;DHT22;2532;52.480;13.354;2023-05-07T18:55:13;15.50;69.80
5027;DHT22;2532;52.480;13.354;2023-05-07T18:57:44;15.50;70.00
5027;DHT22;2532;52.480;13.354;2023-05-07T19:00:12;15.50;70.30
5027;DHT22;2532;52.480;13.354;2023-05-07T19:02:39;15.50;70.60
5027;DHT22;2532;52.480;13.354;2023-05-07T19:05:07;15.50;70.50
5027;DHT22;2532;52.480;13.354;2023-05-07T19:07:34;15.50;70.40
5027;DHT22;2532;52.480;13.354;2023-05-07T19:10:01;15.40;70.20
5027;DHT22;2532;52.480;13.354;2023-05-07T19:12:28;15.40;69.80
5027;DHT22;2532;52.480;13.354;2023-05-07T19:14:56;15.40;69.60
5027;DHT22;2532;52.480;13.354;2023-05-07T19:17:23;15.40;69.40
5027;DHT22;2532;52.480;13.354;2023-05-07T19:19:50;15.40;69.20
5027;DHT22;2532;52.480;13.354;2023-05-07T19:22:17;15.30;69.10
5027;DHT22;2532;52.480;13.354;2023-05-07T19:24:44;15.20;69.00
5027;DHT22;2532;52.480;13.354;2023-05-07T19:27:11;15.20;68.60
5027;DHT22;2532;52.480;13.354;2023-05-07T19:29:39;15.20;69.00
5027;DHT22;2532;52.480;13.354;2023-05-07T19:32:07;15.30;68.40
5027;DHT22;2532;52.480;13.354;2023-05-07T19:34:34;15.20;68.70
5027;DHT22;2532;52.480;13.354;2023-05-07T19:37:01;15.20;69.00
5027;DHT22;2532;52.480;13.354;2023-05-07T19:39:28;15.10;68.50
5027;DHT22;2532;52.480;13.354;2023-05-07T19:41:55;15.10;68.60
5027;DHT22;2532;52.480;13.354;2023-05-07T19:44:22;15.10;68.70
5027;DHT22;2532;52.480;13.354;2023-05-07T19:46:49;15.10;68.80
5027;DHT22;2532;52.480;13.354;2023-05-07T19:49:18;15.00;68.90
5027;DHT22;2532;52.480;13.354;2023-05-07T19:51:45;14.90;68.70
5027;DHT22;2532;52.480;13.354;2023-05-07T19:54:12;14.90;68.70
5027;DHT22;2532;52.480;13.354;2023-05-07T19:56:39;14.90;68.90
5027;DHT22;2532;52.480;13.354;2023-05-07T19:59:06;14.90;69.20